Pagrindinis puslapis
METAR-TAF:

METAR-TAF

Oro uostai :

Vekšė, Švedija

platuma: 56-51N, ilguma: 014-50E, Aukštis: 199 m

Dabartinis oras

Ataskaita buvo paskelbta 39 minutes, ne 10:50 UTC
Vėjas 4 kt iš Šiaurės/Šiaurės Rytų
Temperatūra -1°C
Drėgmė 86%
Slėgis 1029 hPa
Matomumas 10 km arba daugiau
nėra debesų žemiau 1500 m ir nėra kamuolinių lietaus debesų

METAR: ESMX 271050Z 02004KT CAVOK M01/M03 Q1029

Laikas: 12:29 (11:29 UTC)

Prognozė

Ataskaita buvo paskelbta 2 valandos ir 59 minutes, ne 08:30 UTC
Prognozė galioja nuo 27 metu 09 UTC su 27 metu 16 UTC
Vėjas 4 kt iš Šiaurės
Matomumas 10 km arba daugiau
nėra debesų žemiau 1500 m ir nėra kamuolinių lietaus debesų

TAF: ESMX 270830Z 2709/2716 36004KT CAVOK

Orai ataskaitas ir orų prognozės (METAR, TAF).

turimą stotys yra geltonos ir raudonos taškus žemėlapyje.

Perkelti pele per norėdami pamatyti stoties vardą.

Tada spustelėkite, norėdami matyti oro stebėjimo ir prognozės.

Norėdami pakeisti žemėlapį: spustelėkite ant žalios mygtukų su juodo kryžiaus žemyn,; žalią mygtuką su brūkšneliu, jei norite nutolinti; arba žalių rodyklių gretimoms žemėlapius.


METAR-TAF: